Time;durP1;ratioP1;P1;durP2;ratioP2;P2;SDS_P1;SDS_P2;PMS_P1;PMS_P2;Temp;Humidity;BMP_temperature;BMP_pressure;BME280_temperature;BME280_humidity;BME280_pressure;Samples;Min_cycle;Max_cycle;Signal;HPM_P1;HPM_P2
2021/05/09 00:01:25;;;;;;;5.15;0.10;;;18.60;56.50;;;;;;4984119;28;20496;-78
2021/05/09 00:03:51;;;;;;;0.25;0.10;;;18.60;56.50;;;;;;5018897;28;20407;-78
2021/05/09 00:06:17;;;;;;;0.50;0.20;;;18.60;56.50;;;;;;5021889;28;20026;-78
2021/05/09 00:08:44;;;;;;;0.60;0.10;;;18.60;56.60;;;;;;5015797;28;20041;-78
2021/05/09 00:11:10;;;;;;;2.05;0.10;;;18.60;56.60;;;;;;5012551;28;20030;-78
2021/05/09 00:13:36;;;;;;;1.42;0.77;;;18.50;56.60;;;;;;4996216;28;20049;-78
2021/05/09 00:16:03;;;;;;;1.25;0.38;;;18.50;56.60;;;;;;4994627;28;20395;-79
2021/05/09 00:18:29;;;;;;;1.25;0.20;;;18.50;56.70;;;;;;5007975;28;20522;-78
2021/05/09 00:20:56;;;;;;;0.45;0.20;;;18.50;56.80;;;;;;5043061;28;20040;-78
2021/05/09 00:23:22;;;;;;;3.88;0.45;;;18.50;56.80;;;;;;5012312;28;20033;-79
2021/05/09 00:25:48;;;;;;;0.95;0.30;;;18.50;56.80;;;;;;5010813;28;20414;-78
2021/05/09 00:28:14;;;;;;;0.80;0.50;;;18.50;56.80;;;;;;5012319;28;20034;-78
2021/05/09 00:30:40;;;;;;;1.63;0.57;;;18.40;57.40;;;;;;5011698;28;20412;-78
2021/05/09 00:33:06;;;;;;;0.35;0.05;;;18.40;56.90;;;;;;4997277;28;20034;-78
2021/05/09 00:35:32;;;;;;;0.50;0.17;;;18.40;57.00;;;;;;5013950;28;20030;-78
2021/05/09 00:37:58;;;;;;;0.52;0.20;;;18.30;57.00;;;;;;5012231;28;20057;-78
2021/05/09 00:40:24;;;;;;;0.43;0.20;;;18.30;57.10;;;;;;5011610;28;20033;-78
2021/05/09 00:42:54;;;;;;;1.33;0.30;;;18.20;57.20;;;;;;4996674;28;20031;-78
2021/05/09 00:45:20;;;;;;;0.63;0.10;;;18.20;57.30;;;;;;4995541;28;20046;-78
2021/05/09 00:47:48;;;;;;;0.30;0.10;;;18.20;57.30;;;;;;5015134;28;20518;-78
2021/05/09 00:50:14;;;;;;;0.20;0.10;;;18.10;57.40;;;;;;4990014;28;20043;-78
2021/05/09 00:52:40;;;;;;;0.40;0.20;;;18.10;57.40;;;;;;5034418;28;20423;-78
2021/05/09 00:55:07;;;;;;;1.30;0.13;;;18.20;57.40;;;;;;5012381;28;20037;-78
2021/05/09 00:57:35;;;;;;;0.70;0.05;;;18.20;57.40;;;;;;5011809;28;20035;-78
2021/05/09 01:00:03;;;;;;;4.45;0.70;;;18.20;57.40;;;;;;4977235;28;20042;-77
2021/05/09 01:02:30;;;;;;;2.90;0.10;;;18.10;57.40;;;;;;5012060;28;20029;-78
2021/05/09 01:04:56;;;;;;;0.73;0.32;;;18.10;57.40;;;;;;5013214;28;20038;-78
2021/05/09 01:07:22;;;;;;;1.10;0.20;;;18.10;57.50;;;;;;5011076;28;20053;-78
2021/05/09 01:09:48;;;;;;;0.17;0.00;;;18.10;57.50;;;;;;5009910;28;20042;-78
2021/05/09 01:12:15;;;;;;;1.25;0.20;;;18.00;57.50;;;;;;5011404;28;20026;-78
2021/05/09 01:14:41;;;;;;;0.38;0.10;;;18.00;57.60;;;;;;5024768;28;20049;-78
2021/05/09 01:17:07;;;;;;;0.30;0.20;;;18.00;57.80;;;;;;5009467;28;20037;-78
2021/05/09 01:19:33;;;;;;;2.00;0.35;;;18.00;57.80;;;;;;5011574;28;20030;-78
2021/05/09 01:22:00;;;;;;;0.50;0.30;;;17.90;57.80;;;;;;5011918;28;20029;-78
2021/05/09 01:24:26;;;;;;;0.30;0.10;;;17.90;57.90;;;;;;4977970;28;20035;-78
2021/05/09 01:26:52;;;;;;;0.57;0.30;;;17.90;57.90;;;;;;5012818;28;20034;-78
2021/05/09 01:29:18;;;;;;;0.52;0.17;;;17.90;58.00;;;;;;5012606;28;20049;-78
2021/05/09 01:31:47;;;;;;;1.40;0.52;;;17.80;58.00;;;;;;5010960;28;20034;-78
2021/05/09 01:34:14;;;;;;;0.38;0.13;;;17.80;58.10;;;;;;5011528;28;20391;-78
2021/05/09 01:36:40;;;;;;;0.40;0.10;;;17.80;58.10;;;;;;4993065;28;20034;-78
2021/05/09 01:39:06;;;;;;;0.25;0.10;;;17.80;58.10;;;;;;4995392;28;20056;-78
2021/05/09 01:41:33;;;;;;;0.77;0.30;;;17.70;58.20;;;;;;5012022;28;20045;-78
2021/05/09 01:43:59;;;;;;;1.77;0.50;;;17.70;58.30;;;;;;5010756;28;20439;-78
2021/05/09 01:46:25;;;;;;;0.45;0.15;;;17.70;58.30;;;;;;5011878;28;20037;-78
2021/05/09 01:48:51;;;;;;;0.35;0.20;;;17.60;58.40;;;;;;5011255;28;20034;-78
2021/05/09 01:51:18;;;;;;;0.25;0.13;;;17.60;58.40;;;;;;4993802;28;20042;-78
2021/05/09 01:53:44;;;;;;;0.47;0.10;;;17.60;58.50;;;;;;5012795;28;20042;-78
2021/05/09 01:56:10;;;;;;;0.17;0.05;;;17.60;58.60;;;;;;5006876;28;20033;-78
2021/05/09 01:58:36;;;;;;;0.80;0.10;;;17.60;58.60;;;;;;5009116;28;20395;-78
2021/05/09 02:01:02;;;;;;;0.38;0.10;;;17.50;58.60;;;;;;5011394;28;20041;-78
2021/05/09 02:03:28;;;;;;;0.80;0.20;;;17.50;58.80;;;;;;5008712;28;20034;-78
2021/05/09 02:05:54;;;;;;;0.82;0.10;;;17.30;59.00;;;;;;5003908;28;20046;-78
2021/05/09 02:08:22;;;;;;;0.80;0.30;;;17.30;59.20;;;;;;5001034;28;20038;-78
2021/05/09 02:10:48;;;;;;;0.73;0.10;;;17.20;59.30;;;;;;5010925;28;20049;-78
2021/05/09 02:13:14;;;;;;;0.50;0.30;;;17.10;59.40;;;;;;4993839;28;20374;-78
2021/05/09 02:15:40;;;;;;;0.63;0.22;;;17.00;59.50;;;;;;5038566;28;20030;-78
2021/05/09 02:18:06;;;;;;;0.43;0.10;;;17.00;59.50;;;;;;5011049;28;20147;-78
2021/05/09 02:20:33;;;;;;;1.60;0.30;;;17.00;59.50;;;;;;5031732;28;20034;-78
2021/05/09 02:22:59;;;;;;;1.65;0.35;;;17.00;59.50;;;;;;5010054;28;20034;-78
2021/05/09 02:25:25;;;;;;;0.57;0.30;;;17.10;59.50;;;;;;5010493;28;20034;-78
2021/05/09 02:27:51;;;;;;;2.80;0.50;;;17.10;59.40;;;;;;5042276;28;20026;-78
2021/05/09 02:30:17;;;;;;;0.93;0.20;;;17.10;59.40;;;;;;5042450;28;20395;-78
2021/05/09 02:32:43;;;;;;;1.98;0.30;;;17.10;59.40;;;;;;5011739;28;20042;-78
2021/05/09 02:35:10;;;;;;;0.40;0.10;;;17.10;59.40;;;;;;5000432;28;20475;-78
2021/05/09 02:37:36;;;;;;;0.40;0.20;;;17.10;59.40;;;;;;5033250;28;20490;-78
2021/05/09 02:40:05;;;;;;;1.10;0.40;;;17.10;59.50;;;;;;4991183;28;20053;-78
2021/05/09 02:42:31;;;;;;;0.50;0.10;;;17.10;59.60;;;;;;4993617;28;20038;-78
2021/05/09 02:44:57;;;;;;;0.28;0.20;;;17.10;59.60;;;;;;5029040;28;20404;-78
2021/05/09 02:47:29;;;;;;;0.32;0.20;;;17.10;59.60;;;;;;5007339;28;20042;-78
2021/05/09 02:49:59;;;;;;;0.45;0.15;;;17.10;59.70;;;;;;5007778;28;20049;-78
2021/05/09 02:52:26;;;;;;;0.68;0.32;;;17.10;59.80;;;;;;5009641;28;20041;-78
2021/05/09 02:54:52;;;;;;;1.83;0.30;;;17.10;59.80;;;;;;5009297;28;20754;-78
2021/05/09 02:57:18;;;;;;;0.38;0.10;;;17.10;59.80;;;;;;5010124;28;20098;-78
2021/05/09 02:59:44;;;;;;;0.73;0.22;;;17.00;59.90;;;;;;5023820;28;20033;-78
2021/05/09 03:02:10;;;;;;;0.50;0.20;;;17.00;59.90;;;;;;5008992;28;20034;-78
2021/05/09 03:04:36;;;;;;;0.60;0.17;;;17.00;60.00;;;;;;5009842;28;20029;-78
2021/05/09 03:07:02;;;;;;;0.32;0.20;;;17.00;60.10;;;;;;5010814;28;20053;-78
2021/05/09 03:09:28;;;;;;;1.75;0.13;;;17.00;60.20;;;;;;5010887;28;20030;-78
2021/05/09 03:11:54;;;;;;;1.63;0.22;;;16.90;60.10;;;;;;5039525;28;20030;-78
2021/05/09 03:14:21;;;;;;;1.27;0.63;;;16.90;60.20;;;;;;5009676;28;20044;-78
2021/05/09 03:16:47;;;;;;;1.35;0.22;;;16.90;60.30;;;;;;5009076;28;20050;-78
2021/05/09 03:19:13;;;;;;;0.82;0.30;;;16.90;60.40;;;;;;5009487;28;20022;-77
2021/05/09 03:21:41;;;;;;;0.63;0.30;;;16.90;60.50;;;;;;4975249;28;20043;-78
2021/05/09 03:24:09;;;;;;;0.57;0.10;;;16.90;60.50;;;;;;5011001;28;20026;-78
2021/05/09 03:26:35;;;;;;;0.57;0.13;;;16.80;60.60;;;;;;5038677;28;20037;-77
2021/05/09 03:29:01;;;;;;;0.03;0.00;;;16.70;60.80;;;;;;4992434;28;20479;-78
2021/05/09 03:31:27;;;;;;;0.57;0.17;;;16.70;60.90;;;;;;5004978;28;20042;-78
2021/05/09 03:33:53;;;;;;;1.02;0.30;;;16.70;60.90;;;;;;5025296;28;20255;-77
2021/05/09 03:36:19;;;;;;;0.35;0.00;;;16.70;61.00;;;;;;5009121;28;20394;-77
2021/05/09 03:38:46;;;;;;;0.30;0.00;;;16.70;61.10;;;;;;5011446;28;20038;-78
2021/05/09 03:41:12;;;;;;;0.47;0.22;;;16.60;61.10;;;;;;5010555;28;20045;-79
2021/05/09 03:43:38;;;;;;;0.30;0.08;;;16.60;61.20;;;;;;5008302;28;20030;-78
2021/05/09 03:46:04;;;;;;;0.43;0.20;;;16.50;61.30;;;;;;4989465;28;20030;-79
2021/05/09 03:48:30;;;;;;;2.47;0.38;;;16.50;61.40;;;;;;4991743;28;20034;-79
2021/05/09 03:50:56;;;;;;;0.13;0.10;;;16.50;61.80;;;;;;5011305;28;20042;-78
2021/05/09 03:53:23;;;;;;;0.10;0.10;;;16.40;61.90;;;;;;5007834;28;20502;-79
2021/05/09 03:55:50;;;;;;;0.47;0.20;;;16.40;62.00;;;;;;5008689;28;20033;-79
2021/05/09 03:58:17;;;;;;;1.42;0.47;;;16.30;62.00;;;;;;5009498;28;20033;-79
2021/05/09 04:00:43;;;;;;;0.10;0.00;;;16.30;62.00;;;;;;5007818;28;20587;-79
2021/05/09 04:03:28;;;;;;;0.80;0.13;;;16.30;62.00;;;;;;5008350;28;20033;-79
2021/05/09 04:05:55;;;;;;;0.40;0.17;;;16.20;62.30;;;;;;5009307;28;20517;-82
2021/05/09 04:08:25;;;;;;;0.20;0.03;;;16.20;62.20;;;;;;4989276;28;20411;-80
2021/05/09 04:10:52;;;;;;;0.60;0.10;;;16.20;62.20;;;;;;4990924;28;20077;-79
2021/05/09 04:13:18;;;;;;;0.85;0.05;;;16.20;62.20;;;;;;5037078;28;20037;-79
2021/05/09 04:15:44;;;;;;;0.50;0.13;;;16.20;62.10;;;;;;4993298;28;20038;-79
2021/05/09 04:18:10;;;;;;;0.95;0.20;;;16.20;62.10;;;;;;5011140;28;20030;-79
2021/05/09 04:20:37;;;;;;;0.70;0.28;;;16.30;62.10;;;;;;5038117;28;20026;-79
2021/05/09 04:23:21;;;;;;;1.25;0.13;;;16.30;62.00;;;;;;5009056;28;20049;-79
2021/05/09 04:25:48;;;;;;;0.80;0.30;;;16.30;62.10;;;;;;5009791;28;20037;-79
2021/05/09 04:28:14;;;;;;;0.13;0.00;;;16.30;62.00;;;;;;5008859;28;20030;-79
2021/05/09 04:30:40;;;;;;;0.30;0.17;;;16.30;62.10;;;;;;5007276;28;20045;-79
2021/05/09 04:33:07;;;;;;;1.17;0.30;;;16.40;62.20;;;;;;5010947;28;20034;-79
2021/05/09 04:35:34;;;;;;;0.52;0.20;;;16.30;62.10;;;;;;5022204;28;20464;-79
2021/05/09 04:38:00;;;;;;;1.00;0.30;;;16.30;62.10;;;;;;5009009;28;20037;-79
2021/05/09 04:40:29;;;;;;;1.17;0.10;;;16.30;62.10;;;;;;5010199;28;20037;-79
2021/05/09 04:42:56;;;;;;;0.00;0.00;;;16.30;62.20;;;;;;5009142;28;20037;-79
2021/05/09 04:45:22;;;;;;;0.88;0.40;;;16.40;62.30;;;;;;5007321;28;20057;-79
2021/05/09 04:47:48;;;;;;;0.43;0.20;;;16.30;62.30;;;;;;5028917;28;20039;-79
2021/05/09 04:50:14;;;;;;;0.70;0.20;;;16.30;62.30;;;;;;5010556;28;20045;-79
2021/05/09 04:52:41;;;;;;;0.85;0.20;;;16.30;62.30;;;;;;5023628;28;20046;-79
2021/05/09 04:55:07;;;;;;;0.20;0.10;;;16.30;62.50;;;;;;5039953;28;20038;-79
2021/05/09 04:57:33;;;;;;;3.53;0.73;;;16.30;62.50;;;;;;5013529;28;20038;-79
2021/05/09 05:00:06;;;;;;;0.90;0.38;;;16.30;63.30;;;;;;4981764;28;20436;-79
2021/05/09 05:02:32;;;;;;;0.30;0.10;;;16.30;62.60;;;;;;4998237;28;20043;-79
2021/05/09 05:04:58;;;;;;;1.60;0.30;;;16.30;62.50;;;;;;4999290;28;20042;-79
2021/05/09 05:07:24;;;;;;;0.63;0.20;;;16.30;62.60;;;;;;4999516;28;20038;-79
2021/05/09 05:09:50;;;;;;;0.17;0.00;;;16.30;62.60;;;;;;5020537;28;20045;-79
2021/05/09 05:12:16;;;;;;;0.20;0.10;;;16.30;62.70;;;;;;4997261;28;20034;-79
2021/05/09 05:14:43;;;;;;;0.40;0.20;;;16.30;62.80;;;;;;5009251;28;20052;-79
2021/05/09 05:17:10;;;;;;;4.10;0.25;;;16.30;62.90;;;;;;4995367;28;20043;-79
2021/05/09 05:19:36;;;;;;;1.05;0.30;;;16.20;62.90;;;;;;4992111;28;20045;-79
2021/05/09 05:22:04;;;;;;;0.57;0.28;;;16.30;62.90;;;;;;4992081;28;20069;-79
2021/05/09 05:24:30;;;;;;;0.57;0.08;;;16.30;62.90;;;;;;4993342;28;20030;-79
2021/05/09 05:26:56;;;;;;;0.22;0.10;;;16.30;62.80;;;;;;5005394;28;20041;-79
2021/05/09 05:29:22;;;;;;;1.60;0.40;;;16.40;62.70;;;;;;4991089;28;20050;-79
2021/05/09 05:31:50;;;;;;;0.80;0.15;;;16.50;62.60;;;;;;4991634;28;20058;-79
2021/05/09 05:34:17;;;;;;;0.55;0.00;;;16.70;62.40;;;;;;5021783;28;20038;-79
2021/05/09 05:36:44;;;;;;;0.75;0.10;;;16.90;62.00;;;;;;4992121;28;20041;-79
2021/05/09 05:39:10;;;;;;;0.22;0.10;;;17.20;61.60;;;;;;4976356;28;20031;-79
2021/05/09 05:41:36;;;;;;;1.00;0.30;;;17.40;61.30;;;;;;4994137;28;20053;-80
2021/05/09 05:44:02;;;;;;;0.40;0.10;;;17.70;60.90;;;;;;4991916;28;20045;-80
2021/05/09 05:46:30;;;;;;;0.35;0.17;;;17.90;60.50;;;;;;4992317;28;20031;-80
2021/05/09 05:48:56;;;;;;;0.30;0.10;;;18.10;60.20;;;;;;4991020;28;20029;-79
2021/05/09 05:51:22;;;;;;;0.50;0.20;;;18.10;60.10;;;;;;4974155;28;20058;-79
2021/05/09 05:53:49;;;;;;;0.50;0.30;;;18.10;60.20;;;;;;5010367;28;20061;-79
2021/05/09 05:56:15;;;;;;;2.92;0.30;;;18.00;60.40;;;;;;4971337;28;20061;-80
2021/05/09 05:58:41;;;;;;;0.20;0.10;;;18.00;60.60;;;;;;4989113;28;20034;-80
2021/05/09 06:01:07;;;;;;;0.70;0.20;;;17.90;60.70;;;;;;4990208;28;20026;-80
2021/05/09 06:03:33;;;;;;;0.35;0.15;;;17.90;60.80;;;;;;4992037;28;20468;-79
2021/05/09 06:05:59;;;;;;;0.30;0.10;;;17.90;60.80;;;;;;4992227;28;20045;-80
2021/05/09 06:08:25;;;;;;;0.75;0.15;;;18.00;60.90;;;;;;4990105;28;20027;-79
2021/05/09 06:10:51;;;;;;;0.95;0.32;;;18.00;60.80;;;;;;4992478;28;20034;-79
2021/05/09 06:13:21;;;;;;;0.17;0.10;;;18.10;60.70;;;;;;4991911;28;20030;-79
2021/05/09 06:15:47;;;;;;;1.07;0.30;;;18.20;60.60;;;;;;4989801;28;20034;-79
2021/05/09 06:18:14;;;;;;;0.03;0.00;;;18.20;60.50;;;;;;4974495;28;20403;-80
2021/05/09 06:20:40;;;;;;;9.43;0.50;;;18.20;60.60;;;;;;5011333;28;20031;-80
2021/05/09 06:23:06;;;;;;;0.47;0.20;;;18.10;60.70;;;;;;4989009;28;20476;-80
2021/05/09 06:25:32;;;;;;;0.30;0.03;;;18.00;60.90;;;;;;4971809;28;20030;-80
2021/05/09 06:27:59;;;;;;;1.17;0.20;;;17.90;60.90;;;;;;4985805;28;20106;-81
2021/05/09 06:30:25;;;;;;;0.95;0.20;;;17.90;61.10;;;;;;4985351;28;20050;-84
2021/05/09 06:32:51;;;;;;;0.10;0.00;;;17.90;61.30;;;;;;5004553;28;20043;-79
2021/05/09 06:35:17;;;;;;;1.13;0.20;;;17.90;61.40;;;;;;4991662;28;20495;-80
2021/05/09 06:37:44;;;;;;;1.42;0.50;;;17.90;61.40;;;;;;4991330;28;20041;-78
2021/05/09 06:40:10;;;;;;;2.85;0.38;;;17.90;61.30;;;;;;4988757;28;20064;-82
2021/05/09 06:42:36;;;;;;;0.10;0.00;;;17.90;61.30;;;;;;4981607;28;20030;-81
2021/05/09 06:45:12;;;;;;;2.10;0.68;;;17.90;61.30;;;;;;5000611;28;20035;-79
2021/05/09 06:47:39;;;;;;;0.30;0.10;;;17.90;61.30;;;;;;4997595;28;20683;-82
2021/05/09 06:50:06;;;;;;;0.68;0.20;;;17.90;61.20;;;;;;4966792;28;20038;-81
2021/05/09 06:52:32;;;;;;;0.52;0.28;;;17.90;61.40;;;;;;4980189;28;20046;-82
2021/05/09 06:55:00;;;;;;;0.85;0.25;;;17.90;61.40;;;;;;4960742;28;20045;-81
2021/05/09 06:57:26;;;;;;;2.33;0.28;;;17.90;61.40;;;;;;4991711;28;20029;-79
2021/05/09 06:59:52;;;;;;;0.22;0.10;;;17.90;61.50;;;;;;4981495;28;20038;-81
2021/05/09 07:02:18;;;;;;;0.50;0.22;;;17.80;61.50;;;;;;4995573;28;20043;-83
2021/05/09 07:04:44;;;;;;;0.63;0.20;;;17.80;61.70;;;;;;4976965;28;20022;-79
2021/05/09 07:07:11;;;;;;;0.10;0.00;;;17.80;61.70;;;;;;4978386;28;20038;-81
2021/05/09 07:09:38;;;;;;;0.85;0.10;;;17.90;61.60;;;;;;4992417;28;20034;-80
2021/05/09 07:12:06;;;;;;;0.20;0.03;;;17.90;61.60;;;;;;4975997;28;20045;-80
2021/05/09 07:14:32;;;;;;;0.75;0.22;;;17.90;61.60;;;;;;4986740;28;20035;-82
2021/05/09 07:16:58;;;;;;;0.25;0.10;;;18.00;61.60;;;;;;4981142;28;20039;-82
2021/05/09 07:19:24;;;;;;;0.20;0.05;;;18.10;61.70;;;;;;4997971;28;20023;-82
2021/05/09 07:21:56;;;;;;;1.33;0.35;;;18.10;61.50;;;;;;4989790;28;20026;-82
2021/05/09 07:24:22;;;;;;;0.40;0.20;;;18.20;61.60;;;;;;4988660;28;20046;-79
2021/05/09 07:26:48;;;;;;;0.10;0.00;;;18.30;61.60;;;;;;4983032;28;20464;-80
2021/05/09 07:29:14;;;;;;;0.40;0.10;;;18.30;61.50;;;;;;4983440;28;20058;-82
2021/05/09 07:31:41;;;;;;;0.50;0.15;;;18.40;61.40;;;;;;4988681;28;20034;-86
2021/05/09 07:34:09;;;;;;;0.43;0.13;;;18.50;61.40;;;;;;5016193;28;20034;-79
2021/05/09 07:36:36;;;;;;;0.60;0.17;;;18.60;61.30;;;;;;5005129;28;20042;-79
2021/05/09 07:39:03;;;;;;;0.45;0.20;;;18.60;61.20;;;;;;4987307;28;20037;-78
2021/05/09 07:41:29;;;;;;;0.20;0.00;;;18.80;61.10;;;;;;4986207;28;20035;-80
2021/05/09 07:43:55;;;;;;;0.38;0.10;;;18.90;60.90;;;;;;5000532;28;20057;-80
2021/05/09 07:46:21;;;;;;;0.20;0.03;;;19.10;60.70;;;;;;4986381;28;20037;-79
2021/05/09 07:48:47;;;;;;;0.32;0.10;;;19.30;60.40;;;;;;4972649;28;20403;-79
2021/05/09 07:51:13;;;;;;;6.38;0.20;;;19.50;60.10;;;;;;5007622;28;20047;-79
2021/05/09 07:53:39;;;;;;;0.32;0.10;;;19.80;59.80;;;;;;5008429;28;20051;-82
2021/05/09 07:56:06;;;;;;;0.70;0.30;;;20.10;59.40;;;;;;4967058;28;20389;-85
2021/05/09 07:58:32;;;;;;;0.60;0.28;;;20.50;59.00;;;;;;4982015;28;20034;-86
2021/05/09 08:01:01;;;;;;;0.77;0.25;;;20.70;58.70;;;;;;4994326;28;20031;-81
2021/05/09 08:03:27;;;;;;;1.35;0.22;;;21.00;58.40;;;;;;4972650;28;20023;-87
2021/05/09 08:05:53;;;;;;;0.95;0.20;;;21.20;58.30;;;;;;4987296;28;20037;-88
2021/05/09 08:08:21;;;;;;;0.28;0.10;;;21.30;58.20;;;;;;4981547;28;20046;-86
2021/05/09 08:10:47;;;;;;;13.00;0.60;;;21.40;58.10;;;;;;4995046;28;20066;-88
2021/05/09 08:13:13;;;;;;;0.20;0.10;;;21.50;58.10;;;;;;4974204;28;20030;-87
2021/05/09 08:15:39;;;;;;;0.40;0.20;;;21.50;58.20;;;;;;4975909;28;20047;-84
2021/05/09 08:18:06;;;;;;;0.65;0.20;;;21.50;58.20;;;;;;4973492;28;20396;-85
2021/05/09 08:20:32;;;;;;;0.80;0.20;;;21.60;58.30;;;;;;4985074;28;20026;-84
2021/05/09 08:22:58;;;;;;;0.60;0.17;;;21.60;58.30;;;;;;4980498;28;20027;-86
2021/05/09 08:25:24;;;;;;;0.68;0.20;;;21.70;58.40;;;;;;5002239;28;20030;-85
2021/05/09 08:27:50;;;;;;;0.70;0.20;;;21.80;58.30;;;;;;4991112;28;20037;-85
2021/05/09 08:30:21;;;;;;;0.73;0.13;;;21.90;58.20;;;;;;4973803;28;20046;-86
2021/05/09 08:32:47;;;;;;;0.50;0.20;;;22.00;58.20;;;;;;4980168;28;20042;-85
2021/05/09 08:35:13;;;;;;;0.63;0.10;;;22.10;58.10;;;;;;4999919;28;20074;-84
2021/05/09 08:37:40;;;;;;;0.50;0.20;;;22.20;58.00;;;;;;5018580;28;20038;-85
2021/05/09 08:40:08;;;;;;;1.20;0.20;;;22.30;57.90;;;;;;4987529;28;20019;-86
2021/05/09 08:42:34;;;;;;;0.55;0.32;;;22.30;58.00;;;;;;4986677;28;20042;-86
2021/05/09 08:45:00;;;;;;;0.40;0.20;;;22.20;58.00;;;;;;4976895;28;20045;-86
2021/05/09 08:47:41;;;;;;;0.68;0.10;;;22.20;58.10;;;;;;4982643;28;20037;-86
2021/05/09 08:50:29;;;;;;;4.68;0.77;;;22.20;58.30;;;;;;4991202;28;20055;-86
2021/05/09 08:52:56;;;;;;;1.25;0.30;;;22.30;58.30;;;;;;5008314;28;20046;-85
2021/05/09 08:55:25;;;;;;;1.27;0.30;;;22.40;58.10;;;;;;4993702;28;20363;-85
2021/05/09 08:57:55;;;;;;;1.15;0.30;;;22.60;57.80;;;;;;5042828;28;20034;-84
2021/05/09 09:00:23;;;;;;;0.33;0.13;;;22.70;57.70;;;;;;4994222;28;20045;-85
2021/05/09 09:02:50;;;;;;;0.57;0.17;;;22.70;57.70;;;;;;5013262;28;20296;-85
2021/05/09 09:05:16;;;;;;;0.80;0.40;;;22.80;57.70;;;;;;5010113;28;20037;-84
2021/05/09 09:07:45;;;;;;;1.08;0.20;;;22.90;57.60;;;;;;5009910;28;20033;-84
2021/05/09 09:10:35;;;;;;;0.52;0.20;;;23.20;57.30;;;;;;5009608;28;20029;-84
2021/05/09 09:13:02;;;;;;;1.67;0.35;;;23.30;57.10;;;;;;5005289;28;20030;-84
2021/05/09 09:15:47;;;;;;;1.05;0.20;;;23.40;57.00;;;;;;5003247;28;20030;-86
2021/05/09 09:18:34;;;;;;;0.57;0.20;;;23.40;56.90;;;;;;5028975;28;20038;-85
2021/05/09 09:21:29;;;;;;;0.47;0.08;;;23.50;56.90;;;;;;5030938;28;20034;-83
2021/05/09 09:23:57;;;;;;;0.75;0.50;;;23.60;56.80;;;;;;5013711;28;20034;-83
2021/05/09 09:26:36;;;;;;;1.52;0.30;;;23.70;56.70;;;;;;5005526;28;20038;-83
2021/05/09 09:29:33;;;;;;;0.93;0.17;;;23.80;56.70;;;;;;4993547;28;20033;-84
2021/05/09 09:32:03;;;;;;;3.53;0.82;;;23.80;56.60;;;;;;5004685;28;20046;-84
2021/05/09 09:34:39;;;;;;;1.65;0.28;;;23.80;56.50;;;;;;4985779;28;20030;-83
2021/05/09 09:37:05;;;;;;;0.38;0.20;;;23.90;56.40;;;;;;4997620;28;20107;-86
2021/05/09 09:39:54;;;;;;;0.60;0.10;;;24.00;56.40;;;;;;5011393;28;20034;-87
2021/05/09 09:42:41;;;;;;;2.22;0.50;;;24.00;56.30;;;;;;5042190;28;20038;-84
2021/05/09 09:45:28;;;;;;;0.30;0.10;;;24.20;56.10;;;;;;5010493;28;20403;-87
2021/05/09 09:48:02;;;;;;;2.30;0.50;;;24.30;55.90;;;;;;5029978;28;20022;-87
2021/05/09 09:50:51;;;;;;;4.53;0.47;;;24.30;55.80;;;;;;5040248;28;20398;-86
2021/05/09 09:53:35;;;;;;;1.63;0.30;;;24.40;55.70;;;;;;5009822;28;20046;-88
2021/05/09 09:56:10;;;;;;;0.70;0.30;;;24.50;55.70;;;;;;5005294;28;20026;-86
2021/05/09 09:58:50;;;;;;;1.40;0.38;;;24.60;55.50;;;;;;5033362;28;20045;-86
2021/05/09 10:01:27;;;;;;;0.38;0.10;;;24.90;55.20;;;;;;4996377;28;20029;-87
2021/05/09 10:04:05;;;;;;;0.63;0.20;;;25.10;54.80;;;;;;5009318;28;20033;-86
2021/05/09 10:06:31;;;;;;;0.88;0.40;;;25.10;54.60;;;;;;5010376;28;20033;-83
2021/05/09 10:09:00;;;;;;;2.40;0.45;;;25.10;54.70;;;;;;5007974;28;20034;-84
2021/05/09 10:11:27;;;;;;;2.67;0.28;;;25.10;54.70;;;;;;5011856;28;20042;-84
2021/05/09 10:13:53;;;;;;;0.98;0.32;;;25.10;54.50;;;;;;4988178;28;20030;-81
2021/05/09 10:16:20;;;;;;;0.75;0.20;;;25.30;54.40;;;;;;5009899;28;20034;-81
2021/05/09 10:18:48;;;;;;;11.00;0.45;;;25.40;54.20;;;;;;5009804;28;20502;-81
2021/05/09 10:21:15;;;;;;;0.40;0.10;;;25.50;54.00;;;;;;5004724;28;20033;-80
2021/05/09 10:24:07;;;;;;;2.25;0.38;;;25.70;53.80;;;;;;4998564;28;20042;-80
2021/05/09 10:26:37;;;;;;;0.75;0.30;;;25.80;53.60;;;;;;5025092;28;20030;-81
2021/05/09 10:29:03;;;;;;;4.87;0.40;;;26.00;53.40;;;;;;5022755;28;20497;-82
2021/05/09 10:31:29;;;;;;;0.90;0.40;;;26.10;53.20;;;;;;5010410;28;20041;-80
2021/05/09 10:33:55;;;;;;;2.40;0.32;;;26.20;53.00;;;;;;5012258;28;20025;-82
2021/05/09 10:36:21;;;;;;;16.30;1.10;;;26.30;52.80;;;;;;5011321;28;20037;-81
2021/05/09 10:39:14;;;;;;;1.08;0.30;;;26.30;52.80;;;;;;5010005;28;20036;-82
2021/05/09 10:41:55;;;;;;;1.67;0.28;;;26.30;53.40;;;;;;5012715;28;20034;-81
2021/05/09 10:44:41;;;;;;;0.93;0.43;;;26.20;52.80;;;;;;5007756;28;20046;-82
2021/05/09 10:47:16;;;;;;;3.40;0.60;;;26.20;52.70;;;;;;5007174;28;20038;-83
2021/05/09 10:50:27;;;;;;;0.63;0.30;;;26.20;52.60;;;;;;4991616;28;20029;-82
2021/05/09 10:52:53;;;;;;;0.82;0.20;;;26.30;52.50;;;;;;4996764;28;20050;-85
2021/05/09 10:55:45;;;;;;;0.43;0.10;;;26.30;52.50;;;;;;4999886;28;20041;-83
2021/05/09 10:58:17;;;;;;;0.68;0.15;;;26.40;52.30;;;;;;5016656;28;20487;-84
2021/05/09 11:00:55;;;;;;;0.47;0.20;;;26.60;52.10;;;;;;5010100;28;20045;-83
2021/05/09 11:03:39;;;;;;;0.75;0.30;;;26.70;51.80;;;;;;5010802;28;20379;-82
2021/05/09 11:06:09;;;;;;;0.28;0.10;;;26.70;51.30;;;;;;5004799;28;20022;-82
2021/05/09 11:08:41;;;;;;;0.80;0.45;;;26.70;51.20;;;;;;5004866;28;20050;-83
2021/05/09 11:11:46;;;;;;;0.80;0.25;;;26.70;51.10;;;;;;5001277;28;20029;-82
2021/05/09 11:14:12;;;;;;;0.88;0.32;;;26.70;51.00;;;;;;5008396;28;20483;-88
2021/05/09 11:16:39;;;;;;;2.15;0.40;;;26.70;50.90;;;;;;5038222;28;20038;-88
2021/05/09 11:19:06;;;;;;;0.38;0.17;;;26.70;50.90;;;;;;5008411;28;20045;-86
2021/05/09 11:21:49;;;;;;;0.45;0.20;;;26.70;50.80;;;;;;5038670;28;20029;-87
2021/05/09 11:24:20;;;;;;;4.88;0.30;;;26.70;50.60;;;;;;4979469;28;20037;-88
2021/05/09 11:26:53;;;;;;;3.92;0.52;;;26.70;50.30;;;;;;5028615;28;20030;-88
2021/05/09 11:29:21;;;;;;;1.67;0.47;;;26.90;50.20;;;;;;5000236;28;20053;-89
2021/05/09 11:31:51;;;;;;;2.45;0.60;;;27.00;50.10;;;;;;5015026;28;20042;-87
2021/05/09 11:34:18;;;;;;;1.05;0.35;;;27.00;49.70;;;;;;5000420;28;20025;-90
2021/05/09 11:36:48;;;;;;;1.60;0.47;;;27.10;49.50;;;;;;5010366;28;20042;-90
2021/05/09 11:39:22;;;;;;;1.85;0.75;;;27.10;49.50;;;;;;4994057;28;20030;-88
2021/05/09 11:41:58;;;;;;;2.08;0.60;;;27.10;49.40;;;;;;4996353;28;20030;-88
2021/05/09 11:44:28;;;;;;;0.88;0.30;;;27.00;49.30;;;;;;5009377;28;20037;-86
2021/05/09 11:46:55;;;;;;;1.52;0.50;;;26.90;49.40;;;;;;5006887;28;20040;-89
2021/05/09 11:49:26;;;;;;;0.20;0.10;;;26.80;49.40;;;;;;5005638;28;20480;-90
2021/05/09 11:51:57;;;;;;;2.28;0.30;;;26.80;49.40;;;;;;5010156;28;20487;-85
2021/05/09 11:54:24;;;;;;;;;;;26.80;49.40;;;;;;4994412;28;20061;-84
2021/05/09 11:56:57;;;;;;;1.23;0.25;;;27.00;49.20;;;;;;5005995;28;19920;-85
2021/05/09 11:59:30;;;;;;;0.70;0.22;;;27.10;49.00;;;;;;5009303;28;20498;-85
2021/05/09 12:01:56;;;;;;;1.25;0.35;;;27.10;48.90;;;;;;5038974;28;20053;-86
2021/05/09 12:04:28;;;;;;;1.00;0.40;;;27.10;48.80;;;;;;5012140;28;20582;-85
2021/05/09 12:06:58;;;;;;;0.70;0.40;;;27.10;48.80;;;;;;5013209;28;20387;-85
2021/05/09 12:09:25;;;;;;;0.38;0.13;;;27.00;48.80;;;;;;5012489;28;20391;-85
2021/05/09 12:11:51;;;;;;;0.68;0.25;;;26.90;48.80;;;;;;5042848;28;20073;-85
2021/05/09 12:14:17;;;;;;;0.38;0.03;;;26.80;48.80;;;;;;5012461;28;20034;-85
2021/05/09 12:16:44;;;;;;;8.20;0.50;;;26.80;48.80;;;;;;5011656;28;20041;-85
2021/05/09 12:19:10;;;;;;;4.97;0.30;;;26.80;48.70;;;;;;5010319;28;20078;-84
2021/05/09 12:21:36;;;;;;;0.77;0.10;;;26.90;48.60;;;;;;5011038;28;20034;-84
2021/05/09 12:24:06;;;;;;;0.85;0.40;;;27.00;48.30;;;;;;5015144;28;20022;-84
2021/05/09 12:26:35;;;;;;;1.70;0.60;;;27.10;48.10;;;;;;5043760;28;20509;-85
2021/05/09 12:29:17;;;;;;;1.50;0.20;;;27.20;47.90;;;;;;5012569;28;20048;-85
2021/05/09 12:31:43;;;;;;;0.63;0.17;;;27.20;47.80;;;;;;4993222;28;20046;-84
2021/05/09 12:34:12;;;;;;;0.13;0.03;;;27.20;47.80;;;;;;4994248;28;20041;-85
2021/05/09 12:36:39;;;;;;;1.60;0.40;;;27.20;47.70;;;;;;5010786;28;20278;-85
2021/05/09 12:39:18;;;;;;;0.73;0.35;;;27.40;47.50;;;;;;5013271;28;20022;-83
2021/05/09 12:41:53;;;;;;;0.68;0.28;;;27.50;47.20;;;;;;5014505;28;20035;-84
2021/05/09 12:44:20;;;;;;;0.75;0.25;;;27.50;47.10;;;;;;5010317;28;20426;-84
2021/05/09 12:46:46;;;;;;;0.55;0.10;;;27.50;47.00;;;;;;5039168;28;20407;-84
2021/05/09 12:49:19;;;;;;;2.55;0.10;;;27.40;47.00;;;;;;5012812;28;20034;-85
2021/05/09 12:51:49;;;;;;;0.25;0.05;;;27.30;47.00;;;;;;5013346;28;20037;-86
2021/05/09 12:54:48;;;;;;;1.73;0.20;;;27.10;47.00;;;;;;5013267;28;20042;-83
2021/05/09 12:57:24;;;;;;;1.83;0.28;;;27.00;47.00;;;;;;5033455;28;20419;-85